sensor_id;sensor_type;location;lat;lon;timestamp;P1;durP1;ratioP1;P2;durP2;ratioP2
4726;SDS011;2377;51.734;8.950;2022-07-22T00:01:21;18.00;;;9.47;;
4726;SDS011;2377;51.734;8.950;2022-07-22T00:03:48;13.47;;;9.60;;
4726;SDS011;2377;51.734;8.950;2022-07-22T00:06:15;26.50;;;9.90;;
4726;SDS011;2377;51.734;8.950;2022-07-22T00:08:43;93.87;;;11.50;;
4726;SDS011;2377;51.734;8.950;2022-07-22T00:11:10;29.43;;;8.80;;
4726;SDS011;2377;51.734;8.950;2022-07-22T00:13:37;10.23;;;8.77;;
4726;SDS011;2377;51.734;8.950;2022-07-22T00:16:05;14.53;;;9.37;;
4726;SDS011;2377;51.734;8.950;2022-07-22T00:18:34;11.63;;;8.60;;
4726;SDS011;2377;51.734;8.950;2022-07-22T00:21:01;21.97;;;7.57;;
4726;SDS011;2377;51.734;8.950;2022-07-22T00:23:28;28.53;;;8.07;;
4726;SDS011;2377;51.734;8.950;2022-07-22T00:25:56;8.13;;;6.90;;
4726;SDS011;2377;51.734;8.950;2022-07-22T00:28:23;46.13;;;9.97;;
4726;SDS011;2377;51.734;8.950;2022-07-22T00:30:50;10.50;;;7.20;;
4726;SDS011;2377;51.734;8.950;2022-07-22T00:33:17;10.13;;;6.40;;
4726;SDS011;2377;51.734;8.950;2022-07-22T00:35:46;6.77;;;4.60;;
4726;SDS011;2377;51.734;8.950;2022-07-22T00:38:13;9.93;;;5.07;;
4726;SDS011;2377;51.734;8.950;2022-07-22T00:40:40;6.50;;;5.50;;
4726;SDS011;2377;51.734;8.950;2022-07-22T00:43:07;6.53;;;4.90;;
4726;SDS011;2377;51.734;8.950;2022-07-22T00:45:34;6.40;;;4.30;;
4726;SDS011;2377;51.734;8.950;2022-07-22T00:48:01;5.33;;;3.80;;
4726;SDS011;2377;51.734;8.950;2022-07-22T00:50:29;4.60;;;3.13;;
4726;SDS011;2377;51.734;8.950;2022-07-22T00:52:58;4.00;;;3.27;;
4726;SDS011;2377;51.734;8.950;2022-07-22T00:55:25;4.57;;;3.70;;
4726;SDS011;2377;51.734;8.950;2022-07-22T00:57:53;3.60;;;2.63;;
4726;SDS011;2377;51.734;8.950;2022-07-22T01:00:21;3.30;;;2.50;;
4726;SDS011;2377;51.734;8.950;2022-07-22T01:02:49;3.20;;;2.60;;
4726;SDS011;2377;51.734;8.950;2022-07-22T01:05:16;6.00;;;2.50;;
4726;SDS011;2377;51.734;8.950;2022-07-22T01:07:44;3.17;;;2.67;;
4726;SDS011;2377;51.734;8.950;2022-07-22T01:10:13;2.80;;;2.10;;
4726;SDS011;2377;51.734;8.950;2022-07-22T01:12:40;2.60;;;1.93;;
4726;SDS011;2377;51.734;8.950;2022-07-22T01:15:08;2.87;;;2.27;;
4726;SDS011;2377;51.734;8.950;2022-07-22T01:17:36;2.20;;;1.60;;
4726;SDS011;2377;51.734;8.950;2022-07-22T01:20:04;1.90;;;1.30;;
4726;SDS011;2377;51.734;8.950;2022-07-22T01:22:33;2.03;;;1.20;;
4726;SDS011;2377;51.734;8.950;2022-07-22T01:25:01;2.10;;;1.10;;
4726;SDS011;2377;51.734;8.950;2022-07-22T01:27:28;1.90;;;1.30;;
4726;SDS011;2377;51.734;8.950;2022-07-22T01:29:55;2.10;;;1.20;;
4726;SDS011;2377;51.734;8.950;2022-07-22T01:32:22;2.20;;;1.53;;
4726;SDS011;2377;51.734;8.950;2022-07-22T01:34:50;2.37;;;1.10;;
4726;SDS011;2377;51.734;8.950;2022-07-22T01:37:18;3.50;;;1.10;;
4726;SDS011;2377;51.734;8.950;2022-07-22T01:39:46;3.87;;;1.10;;
4726;SDS011;2377;51.734;8.950;2022-07-22T01:42:14;2.10;;;1.00;;
4726;SDS011;2377;51.734;8.950;2022-07-22T01:44:41;1.50;;;0.80;;
4726;SDS011;2377;51.734;8.950;2022-07-22T01:47:09;2.33;;;1.17;;
4726;SDS011;2377;51.734;8.950;2022-07-22T01:49:36;5.10;;;2.40;;
4726;SDS011;2377;51.734;8.950;2022-07-22T01:52:04;11.40;;;2.20;;
4726;SDS011;2377;51.734;8.950;2022-07-22T01:54:36;3.20;;;1.97;;
4726;SDS011;2377;51.734;8.950;2022-07-22T01:57:03;3.63;;;2.27;;
4726;SDS011;2377;51.734;8.950;2022-07-22T01:59:30;3.50;;;2.43;;
4726;SDS011;2377;51.734;8.950;2022-07-22T02:01:57;5.50;;;2.93;;
4726;SDS011;2377;51.734;8.950;2022-07-22T02:04:24;3.70;;;2.33;;
4726;SDS011;2377;51.734;8.950;2022-07-22T02:06:51;3.57;;;2.40;;
4726;SDS011;2377;51.734;8.950;2022-07-22T02:09:19;3.20;;;1.80;;
4726;SDS011;2377;51.734;8.950;2022-07-22T02:11:47;2.60;;;1.50;;
4726;SDS011;2377;51.734;8.950;2022-07-22T02:14:14;2.50;;;1.40;;
4726;SDS011;2377;51.734;8.950;2022-07-22T02:16:41;2.90;;;2.10;;
4726;SDS011;2377;51.734;8.950;2022-07-22T02:19:09;4.53;;;2.20;;
4726;SDS011;2377;51.734;8.950;2022-07-22T02:21:36;3.00;;;2.00;;
4726;SDS011;2377;51.734;8.950;2022-07-22T02:24:04;3.03;;;2.10;;
4726;SDS011;2377;51.734;8.950;2022-07-22T02:26:32;2.77;;;1.83;;
4726;SDS011;2377;51.734;8.950;2022-07-22T02:29:00;3.30;;;1.80;;
4726;SDS011;2377;51.734;8.950;2022-07-22T02:31:28;3.20;;;1.80;;
4726;SDS011;2377;51.734;8.950;2022-07-22T02:33:55;2.90;;;2.13;;
4726;SDS011;2377;51.734;8.950;2022-07-22T02:36:22;5.93;;;2.33;;
4726;SDS011;2377;51.734;8.950;2022-07-22T02:38:49;3.27;;;2.30;;
4726;SDS011;2377;51.734;8.950;2022-07-22T02:41:16;4.63;;;2.10;;
4726;SDS011;2377;51.734;8.950;2022-07-22T02:43:44;3.90;;;2.60;;
4726;SDS011;2377;51.734;8.950;2022-07-22T02:46:12;5.80;;;3.70;;
4726;SDS011;2377;51.734;8.950;2022-07-22T02:48:39;5.40;;;3.97;;
4726;SDS011;2377;51.734;8.950;2022-07-22T02:51:06;8.10;;;4.63;;
4726;SDS011;2377;51.734;8.950;2022-07-22T02:53:33;6.53;;;5.17;;
4726;SDS011;2377;51.734;8.950;2022-07-22T02:56:01;6.30;;;4.73;;
4726;SDS011;2377;51.734;8.950;2022-07-22T02:58:28;5.87;;;4.80;;
4726;SDS011;2377;51.734;8.950;2022-07-22T03:00:55;7.70;;;5.70;;
4726;SDS011;2377;51.734;8.950;2022-07-22T03:03:23;8.27;;;6.30;;
4726;SDS011;2377;51.734;8.950;2022-07-22T03:05:51;12.07;;;8.83;;
4726;SDS011;2377;51.734;8.950;2022-07-22T03:08:18;11.40;;;7.17;;
4726;SDS011;2377;51.734;8.950;2022-07-22T03:10:45;9.30;;;7.03;;
4726;SDS011;2377;51.734;8.950;2022-07-22T03:13:12;9.57;;;6.37;;
4726;SDS011;2377;51.734;8.950;2022-07-22T03:15:39;12.93;;;7.50;;
4726;SDS011;2377;51.734;8.950;2022-07-22T03:18:06;7.80;;;6.50;;
4726;SDS011;2377;51.734;8.950;2022-07-22T03:20:35;7.83;;;6.30;;
4726;SDS011;2377;51.734;8.950;2022-07-22T03:23:03;7.90;;;5.70;;
4726;SDS011;2377;51.734;8.950;2022-07-22T03:25:30;9.00;;;7.17;;
4726;SDS011;2377;51.734;8.950;2022-07-22T03:27:57;13.00;;;9.17;;
4726;SDS011;2377;51.734;8.950;2022-07-22T03:30:24;8.20;;;7.27;;
4726;SDS011;2377;51.734;8.950;2022-07-22T03:32:51;8.57;;;7.40;;
4726;SDS011;2377;51.734;8.950;2022-07-22T03:35:19;8.03;;;6.80;;
4726;SDS011;2377;51.734;8.950;2022-07-22T03:37:47;8.87;;;6.43;;
4726;SDS011;2377;51.734;8.950;2022-07-22T03:40:15;12.40;;;8.30;;
4726;SDS011;2377;51.734;8.950;2022-07-22T03:42:42;8.03;;;6.47;;
4726;SDS011;2377;51.734;8.950;2022-07-22T03:45:09;7.23;;;5.67;;
4726;SDS011;2377;51.734;8.950;2022-07-22T03:47:37;8.67;;;7.67;;
4726;SDS011;2377;51.734;8.950;2022-07-22T03:50:04;9.17;;;7.77;;
4726;SDS011;2377;51.734;8.950;2022-07-22T03:52:33;9.67;;;7.90;;
4726;SDS011;2377;51.734;8.950;2022-07-22T03:55:01;7.50;;;6.50;;
4726;SDS011;2377;51.734;8.950;2022-07-22T03:57:29;7.87;;;6.90;;
4726;SDS011;2377;51.734;8.950;2022-07-22T03:59:56;20.43;;;7.47;;
4726;SDS011;2377;51.734;8.950;2022-07-22T04:02:23;23.30;;;6.87;;
4726;SDS011;2377;51.734;8.950;2022-07-22T04:04:50;177.20;;;11.40;;
4726;SDS011;2377;51.734;8.950;2022-07-22T04:07:17;13.60;;;7.40;;
4726;SDS011;2377;51.734;8.950;2022-07-22T04:09:44;8.47;;;6.87;;
4726;SDS011;2377;51.734;8.950;2022-07-22T04:12:13;11.80;;;8.00;;
4726;SDS011;2377;51.734;8.950;2022-07-22T04:14:40;21.57;;;8.13;;
4726;SDS011;2377;51.734;8.950;2022-07-22T04:17:07;14.50;;;9.90;;
4726;SDS011;2377;51.734;8.950;2022-07-22T04:19:34;10.93;;;8.10;;
4726;SDS011;2377;51.734;8.950;2022-07-22T04:22:01;9.90;;;6.77;;
4726;SDS011;2377;51.734;8.950;2022-07-22T04:24:28;10.10;;;7.40;;
4726;SDS011;2377;51.734;8.950;2022-07-22T04:26:56;11.67;;;8.27;;
4726;SDS011;2377;51.734;8.950;2022-07-22T04:29:24;10.40;;;7.50;;
4726;SDS011;2377;51.734;8.950;2022-07-22T04:31:51;8.73;;;6.90;;
4726;SDS011;2377;51.734;8.950;2022-07-22T04:34:18;9.47;;;6.80;;
4726;SDS011;2377;51.734;8.950;2022-07-22T04:36:45;10.00;;;7.43;;
4726;SDS011;2377;51.734;8.950;2022-07-22T04:39:12;8.53;;;7.13;;
4726;SDS011;2377;51.734;8.950;2022-07-22T04:41:39;6.83;;;5.57;;
4726;SDS011;2377;51.734;8.950;2022-07-22T04:44:06;8.00;;;5.37;;
4726;SDS011;2377;51.734;8.950;2022-07-22T04:46:35;6.70;;;4.87;;
4726;SDS011;2377;51.734;8.950;2022-07-22T04:49:02;9.43;;;5.60;;
4726;SDS011;2377;51.734;8.950;2022-07-22T04:51:29;7.00;;;4.77;;
4726;SDS011;2377;51.734;8.950;2022-07-22T04:53:56;9.00;;;4.80;;
4726;SDS011;2377;51.734;8.950;2022-07-22T04:56:23;7.90;;;4.07;;
4726;SDS011;2377;51.734;8.950;2022-07-22T04:58:51;5.70;;;3.83;;
4726;SDS011;2377;51.734;8.950;2022-07-22T05:01:18;5.03;;;3.70;;
4726;SDS011;2377;51.734;8.950;2022-07-22T05:03:46;10.60;;;4.43;;
4726;SDS011;2377;51.734;8.950;2022-07-22T05:06:14;7.07;;;4.40;;
4726;SDS011;2377;51.734;8.950;2022-07-22T05:08:41;6.97;;;5.50;;
4726;SDS011;2377;51.734;8.950;2022-07-22T05:11:08;6.60;;;5.17;;
4726;SDS011;2377;51.734;8.950;2022-07-22T05:13:35;9.27;;;5.30;;
4726;SDS011;2377;51.734;8.950;2022-07-22T05:16:02;7.30;;;5.17;;
4726;SDS011;2377;51.734;8.950;2022-07-22T05:18:30;8.30;;;6.00;;
4726;SDS011;2377;51.734;8.950;2022-07-22T05:21:00;8.93;;;6.97;;
4726;SDS011;2377;51.734;8.950;2022-07-22T05:23:27;9.63;;;7.80;;
4726;SDS011;2377;51.734;8.950;2022-07-22T05:25:54;12.20;;;7.40;;
4726;SDS011;2377;51.734;8.950;2022-07-22T05:28:21;14.17;;;8.77;;
4726;SDS011;2377;51.734;8.950;2022-07-22T05:30:49;11.23;;;8.30;;
4726;SDS011;2377;51.734;8.950;2022-07-22T05:33:16;9.93;;;7.10;;
4726;SDS011;2377;51.734;8.950;2022-07-22T05:35:43;10.80;;;7.87;;
4726;SDS011;2377;51.734;8.950;2022-07-22T05:38:11;10.57;;;6.60;;
4726;SDS011;2377;51.734;8.950;2022-07-22T05:40:39;11.80;;;8.30;;
4726;SDS011;2377;51.734;8.950;2022-07-22T05:43:06;8.50;;;6.73;;
4726;SDS011;2377;51.734;8.950;2022-07-22T05:45:33;10.40;;;7.80;;
4726;SDS011;2377;51.734;8.950;2022-07-22T05:48:00;13.30;;;9.50;;
4726;SDS011;2377;51.734;8.950;2022-07-22T05:50:27;10.87;;;7.33;;
4726;SDS011;2377;51.734;8.950;2022-07-22T05:52:54;16.87;;;8.53;;
4726;SDS011;2377;51.734;8.950;2022-07-22T05:55:23;15.70;;;11.00;;
4726;SDS011;2377;51.734;8.950;2022-07-22T05:57:50;12.33;;;8.97;;
4726;SDS011;2377;51.734;8.950;2022-07-22T06:00:17;12.93;;;8.53;;
4726;SDS011;2377;51.734;8.950;2022-07-22T06:02:44;10.07;;;8.63;;
4726;SDS011;2377;51.734;8.950;2022-07-22T06:05:11;13.27;;;9.40;;
4726;SDS011;2377;51.734;8.950;2022-07-22T06:07:38;10.07;;;7.37;;
4726;SDS011;2377;51.734;8.950;2022-07-22T06:10:06;10.90;;;8.20;;
4726;SDS011;2377;51.734;8.950;2022-07-22T06:12:35;11.00;;;7.77;;
4726;SDS011;2377;51.734;8.950;2022-07-22T06:15:02;7.90;;;6.17;;
4726;SDS011;2377;51.734;8.950;2022-07-22T06:17:30;8.63;;;6.63;;
4726;SDS011;2377;51.734;8.950;2022-07-22T06:19:58;9.07;;;6.40;;
4726;SDS011;2377;51.734;8.950;2022-07-22T06:22:25;8.83;;;6.80;;
4726;SDS011;2377;51.734;8.950;2022-07-22T06:24:52;8.70;;;6.30;;
4726;SDS011;2377;51.734;8.950;2022-07-22T06:27:19;15.00;;;7.07;;
4726;SDS011;2377;51.734;8.950;2022-07-22T06:29:48;7.07;;;5.90;;
4726;SDS011;2377;51.734;8.950;2022-07-22T06:32:15;9.03;;;5.80;;
4726;SDS011;2377;51.734;8.950;2022-07-22T06:34:42;9.27;;;6.53;;
4726;SDS011;2377;51.734;8.950;2022-07-22T06:37:09;7.90;;;5.10;;
4726;SDS011;2377;51.734;8.950;2022-07-22T06:39:36;8.20;;;4.83;;
4726;SDS011;2377;51.734;8.950;2022-07-22T06:42:03;7.27;;;5.27;;
4726;SDS011;2377;51.734;8.950;2022-07-22T06:44:31;7.50;;;5.03;;
4726;SDS011;2377;51.734;8.950;2022-07-22T06:46:59;5.47;;;4.30;;
4726;SDS011;2377;51.734;8.950;2022-07-22T06:49:26;5.47;;;4.10;;
4726;SDS011;2377;51.734;8.950;2022-07-22T06:51:53;4.23;;;3.30;;
4726;SDS011;2377;51.734;8.950;2022-07-22T06:54:20;4.30;;;3.50;;
4726;SDS011;2377;51.734;8.950;2022-07-22T06:56:47;4.93;;;3.60;;
4726;SDS011;2377;51.734;8.950;2022-07-22T06:59:15;7.60;;;4.67;;
4726;SDS011;2377;51.734;8.950;2022-07-22T07:01:42;6.90;;;5.10;;
4726;SDS011;2377;51.734;8.950;2022-07-22T07:04:11;8.80;;;4.97;;
4726;SDS011;2377;51.734;8.950;2022-07-22T07:06:38;4.90;;;3.70;;
4726;SDS011;2377;51.734;8.950;2022-07-22T07:09:05;7.20;;;4.57;;
4726;SDS011;2377;51.734;8.950;2022-07-22T07:11:32;8.40;;;4.80;;
4726;SDS011;2377;51.734;8.950;2022-07-22T07:14:00;8.83;;;5.17;;
4726;SDS011;2377;51.734;8.950;2022-07-22T07:16:27;7.70;;;6.13;;
4726;SDS011;2377;51.734;8.950;2022-07-22T07:18:54;9.10;;;6.10;;
4726;SDS011;2377;51.734;8.950;2022-07-22T07:21:22;8.13;;;5.50;;
4726;SDS011;2377;51.734;8.950;2022-07-22T07:23:50;9.57;;;6.30;;
4726;SDS011;2377;51.734;8.950;2022-07-22T07:26:17;9.40;;;5.97;;
4726;SDS011;2377;51.734;8.950;2022-07-22T07:28:44;9.83;;;6.00;;
4726;SDS011;2377;51.734;8.950;2022-07-22T07:31:12;8.50;;;6.00;;
4726;SDS011;2377;51.734;8.950;2022-07-22T07:33:39;9.80;;;6.60;;
4726;SDS011;2377;51.734;8.950;2022-07-22T07:36:06;9.60;;;6.17;;
4726;SDS011;2377;51.734;8.950;2022-07-22T07:38:35;8.23;;;5.60;;
4726;SDS011;2377;51.734;8.950;2022-07-22T07:41:02;8.90;;;5.40;;
4726;SDS011;2377;51.734;8.950;2022-07-22T07:43:30;7.90;;;5.67;;
4726;SDS011;2377;51.734;8.950;2022-07-22T07:45:57;9.73;;;6.23;;
4726;SDS011;2377;51.734;8.950;2022-07-22T07:48:24;10.97;;;6.00;;
4726;SDS011;2377;51.734;8.950;2022-07-22T07:50:51;6.83;;;5.20;;
4726;SDS011;2377;51.734;8.950;2022-07-22T07:53:18;7.43;;;4.80;;
4726;SDS011;2377;51.734;8.950;2022-07-22T07:55:47;7.70;;;5.50;;
4726;SDS011;2377;51.734;8.950;2022-07-22T07:58:14;6.87;;;4.27;;
4726;SDS011;2377;51.734;8.950;2022-07-22T08:00:42;7.07;;;4.80;;
4726;SDS011;2377;51.734;8.950;2022-07-22T08:03:09;7.67;;;5.40;;
4726;SDS011;2377;51.734;8.950;2022-07-22T08:05:36;6.23;;;4.80;;
4726;SDS011;2377;51.734;8.950;2022-07-22T08:08:04;8.00;;;5.40;;
4726;SDS011;2377;51.734;8.950;2022-07-22T08:10:33;7.33;;;4.63;;
4726;SDS011;2377;51.734;8.950;2022-07-22T08:13:02;7.43;;;4.43;;
4726;SDS011;2377;51.734;8.950;2022-07-22T08:15:30;7.10;;;4.20;;
4726;SDS011;2377;51.734;8.950;2022-07-22T08:17:58;6.30;;;5.07;;
4726;SDS011;2377;51.734;8.950;2022-07-22T08:20:25;8.17;;;4.70;;
4726;SDS011;2377;51.734;8.950;2022-07-22T08:22:55;4.80;;;3.73;;
4726;SDS011;2377;51.734;8.950;2022-07-22T08:25:23;9.20;;;5.13;;
4726;SDS011;2377;51.734;8.950;2022-07-22T08:27:51;6.13;;;4.30;;
4726;SDS011;2377;51.734;8.950;2022-07-22T08:30:19;6.93;;;5.20;;
4726;SDS011;2377;51.734;8.950;2022-07-22T08:32:48;5.80;;;4.37;;
4726;SDS011;2377;51.734;8.950;2022-07-22T08:35:15;7.77;;;4.57;;
4726;SDS011;2377;51.734;8.950;2022-07-22T08:37:43;7.70;;;4.60;;
4726;SDS011;2377;51.734;8.950;2022-07-22T08:40:12;5.97;;;4.70;;
4726;SDS011;2377;51.734;8.950;2022-07-22T08:42:42;6.53;;;4.70;;
4726;SDS011;2377;51.734;8.950;2022-07-22T08:45:12;7.70;;;5.03;;
4726;SDS011;2377;51.734;8.950;2022-07-22T08:47:40;8.60;;;5.37;;
4726;SDS011;2377;51.734;8.950;2022-07-22T08:50:10;8.50;;;5.37;;
4726;SDS011;2377;51.734;8.950;2022-07-22T08:52:37;9.60;;;5.30;;
4726;SDS011;2377;51.734;8.950;2022-07-22T08:55:06;7.63;;;5.60;;
4726;SDS011;2377;51.734;8.950;2022-07-22T08:57:35;8.70;;;5.80;;
4726;SDS011;2377;51.734;8.950;2022-07-22T09:00:08;9.00;;;6.10;;
4726;SDS011;2377;51.734;8.950;2022-07-22T09:02:39;10.23;;;5.63;;
4726;SDS011;2377;51.734;8.950;2022-07-22T09:05:09;8.70;;;5.90;;
4726;SDS011;2377;51.734;8.950;2022-07-22T09:07:40;9.80;;;5.90;;
4726;SDS011;2377;51.734;8.950;2022-07-22T09:10:09;10.67;;;6.93;;
4726;SDS011;2377;51.734;8.950;2022-07-22T09:12:49;10.77;;;7.00;;
4726;SDS011;2377;51.734;8.950;2022-07-22T09:15:27;15.27;;;7.03;;
4726;SDS011;2377;51.734;8.950;2022-07-22T09:17:58;9.03;;;6.37;;
4726;SDS011;2377;51.734;8.950;2022-07-22T09:20:26;9.73;;;6.33;;
4726;SDS011;2377;51.734;8.950;2022-07-22T09:22:55;7.10;;;5.67;;
4726;SDS011;2377;51.734;8.950;2022-07-22T09:25:27;11.70;;;8.20;;
4726;SDS011;2377;51.734;8.950;2022-07-22T09:28:08;8.20;;;6.27;;
4726;SDS011;2377;51.734;8.950;2022-07-22T09:30:40;10.70;;;7.47;;
4726;SDS011;2377;51.734;8.950;2022-07-22T09:33:14;10.70;;;6.87;;
4726;SDS011;2377;51.734;8.950;2022-07-22T09:35:42;10.90;;;6.93;;
4726;SDS011;2377;51.734;8.950;2022-07-22T09:38:11;10.30;;;7.33;;
4726;SDS011;2377;51.734;8.950;2022-07-22T09:40:41;10.33;;;7.27;;
4726;SDS011;2377;51.734;8.950;2022-07-22T09:43:11;10.53;;;7.43;;
4726;SDS011;2377;51.734;8.950;2022-07-22T09:45:44;14.00;;;8.13;;
4726;SDS011;2377;51.734;8.950;2022-07-22T09:48:15;11.30;;;8.17;;
4726;SDS011;2377;51.734;8.950;2022-07-22T09:50:44;12.40;;;8.40;;
4726;SDS011;2377;51.734;8.950;2022-07-22T09:53:13;11.40;;;8.17;;
4726;SDS011;2377;51.734;8.950;2022-07-22T09:55:42;11.17;;;8.17;;
4726;SDS011;2377;51.734;8.950;2022-07-22T09:58:10;9.27;;;7.03;;
4726;SDS011;2377;51.734;8.950;2022-07-22T10:00:38;10.30;;;7.03;;
4726;SDS011;2377;51.734;8.950;2022-07-22T10:03:07;10.87;;;7.23;;
4726;SDS011;2377;51.734;8.950;2022-07-22T10:05:41;10.53;;;7.13;;
4726;SDS011;2377;51.734;8.950;2022-07-22T10:08:09;7.90;;;6.10;;
4726;SDS011;2377;51.734;8.950;2022-07-22T10:10:37;10.47;;;7.07;;
4726;SDS011;2377;51.734;8.950;2022-07-22T10:13:06;9.00;;;6.50;;
4726;SDS011;2377;51.734;8.950;2022-07-22T10:15:34;9.93;;;6.27;;
4726;SDS011;2377;51.734;8.950;2022-07-22T10:18:04;10.70;;;6.50;;
4726;SDS011;2377;51.734;8.950;2022-07-22T10:20:34;8.60;;;5.93;;
4726;SDS011;2377;51.734;8.950;2022-07-22T10:23:04;9.50;;;6.00;;
4726;SDS011;2377;51.734;8.950;2022-07-22T10:25:47;8.27;;;5.60;;
4726;SDS011;2377;51.734;8.950;2022-07-22T10:28:21;8.30;;;5.53;;
4726;SDS011;2377;51.734;8.950;2022-07-22T10:30:51;6.70;;;4.90;;
4726;SDS011;2377;51.734;8.950;2022-07-22T10:33:19;7.00;;;5.00;;
4726;SDS011;2377;51.734;8.950;2022-07-22T10:35:57;8.57;;;4.80;;
4726;SDS011;2377;51.734;8.950;2022-07-22T10:38:31;8.20;;;5.13;;
4726;SDS011;2377;51.734;8.950;2022-07-22T10:41:00;7.30;;;5.00;;
4726;SDS011;2377;51.734;8.950;2022-07-22T10:43:28;7.90;;;5.50;;
4726;SDS011;2377;51.734;8.950;2022-07-22T10:45:58;8.23;;;5.60;;
4726;SDS011;2377;51.734;8.950;2022-07-22T10:51:14;8.03;;;5.20;;
4726;SDS011;2377;51.734;8.950;2022-07-22T10:53:45;7.57;;;4.93;;
4726;SDS011;2377;51.734;8.950;2022-07-22T10:56:19;7.77;;;5.23;;
4726;SDS011;2377;51.734;8.950;2022-07-22T10:58:51;8.63;;;5.83;;
4726;SDS011;2377;51.734;8.950;2022-07-22T11:01:22;8.47;;;5.50;;
4726;SDS011;2377;51.734;8.950;2022-07-22T11:03:56;9.00;;;5.53;;
4726;SDS011;2377;51.734;8.950;2022-07-22T11:06:36;12.97;;;6.20;;
4726;SDS011;2377;51.734;8.950;2022-07-22T11:09:06;9.33;;;5.23;;
4726;SDS011;2377;51.734;8.950;2022-07-22T11:11:37;7.50;;;5.33;;
4726;SDS011;2377;51.734;8.950;2022-07-22T11:14:11;8.10;;;5.30;;
4726;SDS011;2377;51.734;8.950;2022-07-22T11:16:40;7.80;;;5.17;;
4726;SDS011;2377;51.734;8.950;2022-07-22T11:19:08;7.50;;;5.20;;
4726;SDS011;2377;51.734;8.950;2022-07-22T11:21:35;10.77;;;6.50;;
4726;SDS011;2377;51.734;8.950;2022-07-22T11:24:05;10.33;;;6.20;;
4726;SDS011;2377;51.734;8.950;2022-07-22T11:26:35;9.20;;;6.40;;
4726;SDS011;2377;51.734;8.950;2022-07-22T11:29:06;8.90;;;6.03;;
4726;SDS011;2377;51.734;8.950;2022-07-22T11:31:35;9.87;;;6.60;;
4726;SDS011;2377;51.734;8.950;2022-07-22T11:34:04;14.50;;;6.40;;
4726;SDS011;2377;51.734;8.950;2022-07-22T11:36:34;10.70;;;6.77;;
4726;SDS011;2377;51.734;8.950;2022-07-22T11:39:05;12.30;;;7.37;;
4726;SDS011;2377;51.734;8.950;2022-07-22T11:41:33;10.93;;;6.10;;
4726;SDS011;2377;51.734;8.950;2022-07-22T11:44:02;13.70;;;7.03;;
4726;SDS011;2377;51.734;8.950;2022-07-22T11:46:34;14.47;;;8.33;;
4726;SDS011;2377;51.734;8.950;2022-07-22T11:49:03;10.73;;;6.53;;
4726;SDS011;2377;51.734;8.950;2022-07-22T11:51:33;10.50;;;8.00;;
4726;SDS011;2377;51.734;8.950;2022-07-22T11:54:05;12.00;;;7.80;;
4726;SDS011;2377;51.734;8.950;2022-07-22T11:56:32;13.77;;;6.87;;
4726;SDS011;2377;51.734;8.950;2022-07-22T11:59:00;10.90;;;6.87;;
4726;SDS011;2377;51.734;8.950;2022-07-22T12:01:31;12.03;;;7.93;;
4726;SDS011;2377;51.734;8.950;2022-07-22T12:04:01;12.60;;;7.87;;
4726;SDS011;2377;51.734;8.950;2022-07-22T12:06:30;9.17;;;6.50;;
4726;SDS011;2377;51.734;8.950;2022-07-22T12:09:03;15.43;;;6.97;;
4726;SDS011;2377;51.734;8.950;2022-07-22T12:11:35;9.87;;;6.00;;
4726;SDS011;2377;51.734;8.950;2022-07-22T12:14:06;7.10;;;5.30;;
4726;SDS011;2377;51.734;8.950;2022-07-22T12:16:35;8.40;;;5.43;;
4726;SDS011;2377;51.734;8.950;2022-07-22T12:19:07;9.40;;;6.70;;
4726;SDS011;2377;51.734;8.950;2022-07-22T12:21:36;9.70;;;6.03;;
4726;SDS011;2377;51.734;8.950;2022-07-22T12:24:25;11.80;;;6.77;;
4726;SDS011;2377;51.734;8.950;2022-07-22T12:26:55;10.57;;;6.63;;
4726;SDS011;2377;51.734;8.950;2022-07-22T12:29:24;8.13;;;5.30;;
4726;SDS011;2377;51.734;8.950;2022-07-22T12:31:55;9.10;;;6.30;;
4726;SDS011;2377;51.734;8.950;2022-07-22T12:34:29;8.73;;;5.80;;
4726;SDS011;2377;51.734;8.950;2022-07-22T12:36:58;9.17;;;5.80;;
4726;SDS011;2377;51.734;8.950;2022-07-22T12:39:29;9.90;;;5.40;;
4726;SDS011;2377;51.734;8.950;2022-07-22T12:41:56;8.40;;;4.83;;
4726;SDS011;2377;51.734;8.950;2022-07-22T12:44:24;8.13;;;4.93;;
4726;SDS011;2377;51.734;8.950;2022-07-22T12:46:53;6.83;;;4.80;;
4726;SDS011;2377;51.734;8.950;2022-07-22T12:49:22;8.93;;;5.27;;
4726;SDS011;2377;51.734;8.950;2022-07-22T12:52:04;11.00;;;4.70;;
4726;SDS011;2377;51.734;8.950;2022-07-22T12:54:39;9.23;;;5.77;;
4726;SDS011;2377;51.734;8.950;2022-07-22T12:57:07;8.80;;;5.47;;
4726;SDS011;2377;51.734;8.950;2022-07-22T12:59:36;9.33;;;6.10;;
4726;SDS011;2377;51.734;8.950;2022-07-22T13:02:03;12.57;;;7.00;;
4726;SDS011;2377;51.734;8.950;2022-07-22T13:04:30;13.93;;;6.30;;
4726;SDS011;2377;51.734;8.950;2022-07-22T13:06:57;10.53;;;6.30;;
4726;SDS011;2377;51.734;8.950;2022-07-22T13:09:25;11.20;;;7.40;;
4726;SDS011;2377;51.734;8.950;2022-07-22T13:11:53;12.53;;;7.10;;
4726;SDS011;2377;51.734;8.950;2022-07-22T13:14:20;12.50;;;7.00;;
4726;SDS011;2377;51.734;8.950;2022-07-22T13:16:47;13.80;;;7.77;;
4726;SDS011;2377;51.734;8.950;2022-07-22T13:19:14;15.77;;;7.03;;
4726;SDS011;2377;51.734;8.950;2022-07-22T13:21:41;13.90;;;8.10;;
4726;SDS011;2377;51.734;8.950;2022-07-22T13:24:09;18.97;;;8.27;;
4726;SDS011;2377;51.734;8.950;2022-07-22T13:26:37;12.03;;;6.73;;
4726;SDS011;2377;51.734;8.950;2022-07-22T13:29:06;12.03;;;7.23;;
4726;SDS011;2377;51.734;8.950;2022-07-22T13:31:34;10.23;;;5.77;;
4726;SDS011;2377;51.734;8.950;2022-07-22T13:34:01;11.97;;;7.37;;
4726;SDS011;2377;51.734;8.950;2022-07-22T13:36:28;14.50;;;8.60;;
4726;SDS011;2377;51.734;8.950;2022-07-22T13:38:57;13.23;;;7.73;;
4726;SDS011;2377;51.734;8.950;2022-07-22T13:41:25;12.40;;;7.37;;
4726;SDS011;2377;51.734;8.950;2022-07-22T13:43:52;11.50;;;7.20;;
4726;SDS011;2377;51.734;8.950;2022-07-22T13:46:21;12.03;;;8.20;;
4726;SDS011;2377;51.734;8.950;2022-07-22T13:48:48;16.60;;;9.77;;
4726;SDS011;2377;51.734;8.950;2022-07-22T13:51:15;14.70;;;8.60;;
4726;SDS011;2377;51.734;8.950;2022-07-22T13:53:42;11.67;;;7.87;;
4726;SDS011;2377;51.734;8.950;2022-07-22T13:56:09;20.00;;;9.60;;
4726;SDS011;2377;51.734;8.950;2022-07-22T13:58:38;14.37;;;8.40;;
4726;SDS011;2377;51.734;8.950;2022-07-22T14:01:06;18.33;;;8.70;;
4726;SDS011;2377;51.734;8.950;2022-07-22T14:03:36;13.00;;;8.03;;
4726;SDS011;2377;51.734;8.950;2022-07-22T14:06:04;15.07;;;7.97;;
4726;SDS011;2377;51.734;8.950;2022-07-22T14:08:33;24.50;;;10.03;;
4726;SDS011;2377;51.734;8.950;2022-07-22T14:11:01;17.47;;;8.43;;
4726;SDS011;2377;51.734;8.950;2022-07-22T14:13:29;11.03;;;7.63;;
4726;SDS011;2377;51.734;8.950;2022-07-22T14:15:56;11.23;;;7.60;;
4726;SDS011;2377;51.734;8.950;2022-07-22T14:18:45;12.77;;;8.57;;
4726;SDS011;2377;51.734;8.950;2022-07-22T14:21:12;15.47;;;9.23;;
4726;SDS011;2377;51.734;8.950;2022-07-22T14:23:39;15.63;;;9.80;;
4726;SDS011;2377;51.734;8.950;2022-07-22T14:26:06;16.60;;;9.27;;
4726;SDS011;2377;51.734;8.950;2022-07-22T14:28:33;16.43;;;9.27;;
4726;SDS011;2377;51.734;8.950;2022-07-22T14:31:00;17.23;;;9.73;;
4726;SDS011;2377;51.734;8.950;2022-07-22T14:33:27;11.90;;;7.80;;
4726;SDS011;2377;51.734;8.950;2022-07-22T14:35:56;14.60;;;8.80;;
4726;SDS011;2377;51.734;8.950;2022-07-22T14:38:23;14.90;;;8.87;;
4726;SDS011;2377;51.734;8.950;2022-07-22T14:40:50;17.47;;;9.43;;
4726;SDS011;2377;51.734;8.950;2022-07-22T14:43:17;14.47;;;9.27;;
4726;SDS011;2377;51.734;8.950;2022-07-22T14:45:44;15.57;;;10.07;;
4726;SDS011;2377;51.734;8.950;2022-07-22T14:48:11;10.70;;;8.20;;
4726;SDS011;2377;51.734;8.950;2022-07-22T14:50:38;13.57;;;8.80;;
4726;SDS011;2377;51.734;8.950;2022-07-22T14:53:07;11.87;;;7.73;;
4726;SDS011;2377;51.734;8.950;2022-07-22T14:55:34;11.13;;;7.90;;
4726;SDS011;2377;51.734;8.950;2022-07-22T14:58:01;12.93;;;8.30;;
4726;SDS011;2377;51.734;8.950;2022-07-22T15:00:28;12.83;;;7.70;;
4726;SDS011;2377;51.734;8.950;2022-07-22T15:02:55;15.90;;;8.03;;
4726;SDS011;2377;51.734;8.950;2022-07-22T15:05:22;13.23;;;8.60;;
4726;SDS011;2377;51.734;8.950;2022-07-22T15:07:50;13.27;;;8.10;;
4726;SDS011;2377;51.734;8.950;2022-07-22T15:10:18;11.90;;;8.40;;
4726;SDS011;2377;51.734;8.950;2022-07-22T15:12:45;12.70;;;8.47;;
4726;SDS011;2377;51.734;8.950;2022-07-22T15:15:12;15.50;;;10.83;;
4726;SDS011;2377;51.734;8.950;2022-07-22T15:17:40;11.90;;;8.43;;
4726;SDS011;2377;51.734;8.950;2022-07-22T15:20:08;21.40;;;8.87;;